ěÝzenÝ letovÚho provozu ╚eskÚ republiky
Letiste: LKKB Aktualizace: 26.10.2020 23:28:24  UTC
 METAR LKKB 26.10. 23:30 ...
METAR LKKB 262330Z 25008KT 9999 -RA SCT036 BKN048 09/07 Q1008 RMK BLU=
 TAF LKKB 26.10. 17:00 ...
TAF LKKB 261700Z 2618/2718 25008KT 9999 SCT018 OVC026      TEMPO 2618/2710 8000 RA SCT010 OVC015      PROB30 TEMPO 2700/2707 4000 RA BR BKN006      BECMG 2712/2714 SCT030      BECMG 2716/2718 20006KT=